Time;durP1;ratioP1;P1;durP2;ratioP2;P2;SDS_P1;SDS_P2;PMS_P1;PMS_P2;Temp;Humidity;BMP_temperature;BMP_pressure;BME280_temperature;BME280_humidity;BME280_pressure;Samples;Min_cycle;Max_cycle;Signal;HPM_P1;HPM_P2
2021/11/28 00:00:25;;;;;;;39.78;23.30;;;4.20;99.90;;;;;;5108041;27;20062;-62
2021/11/28 00:02:51;;;;;;;;;;;4.40;99.90;;;;;;5127308;27;20077;-62
2021/11/28 00:05:19;;;;;;;39.58;25.35;;;4.30;99.90;;;;;;5105849;28;19920;-62
2021/11/28 00:08:07;;;;;;;41.10;24.23;;;4.40;99.90;;;;;;5102585;28;20062;-62
2021/11/28 00:13:07;;;;;;;42.70;26.27;;;4.40;99.90;;;;;;5109852;28;20107;-62
2021/11/28 00:15:34;;;;;;;44.85;26.85;;;4.50;99.90;;;;;;5128667;28;20047;-62
2021/11/28 00:18:00;;;;;;;47.80;27.25;;;4.50;99.90;;;;;;5108793;28;20043;-62
2021/11/28 00:20:26;;;;;;;43.88;26.85;;;4.60;99.90;;;;;;5108857;28;20043;-62
2021/11/28 00:22:51;;;;;;;45.70;27.40;;;4.40;99.90;;;;;;5139911;27;20043;-62
2021/11/28 00:25:19;;;;;;;50.35;27.73;;;4.40;99.90;;;;;;5146991;27;20043;-62
2021/11/28 00:27:46;;;;;;;49.55;29.38;;;4.40;99.90;;;;;;5120101;28;20075;-62
2021/11/28 00:30:17;;;;;;;42.17;26.67;;;4.50;99.90;;;;;;5109057;28;20059;-62
2021/11/28 00:32:42;;;;;;;44.67;26.90;;;4.50;99.90;;;;;;5109229;28;20040;-62
2021/11/28 00:35:08;;;;;;;46.17;26.75;;;4.50;99.90;;;;;;5127512;28;20065;-62
2021/11/28 00:37:34;;;;;;;43.05;26.85;;;4.40;99.90;;;;;;5108512;28;20035;-62
2021/11/28 00:40:00;;;;;;;50.67;28.98;;;4.40;99.90;;;;;;5127159;28;20235;-62
2021/11/28 00:42:26;;;;;;;48.35;27.55;;;4.30;99.90;;;;;;5127421;28;20040;-62
2021/11/28 00:44:52;;;;;;;44.35;27.13;;;4.20;99.90;;;;;;5106250;28;20062;-62
2021/11/28 00:47:19;;;;;;;46.25;27.83;;;4.10;99.90;;;;;;5126723;28;20047;-62
2021/11/28 00:52:31;;;;;;;44.85;27.48;;;4.00;99.90;;;;;;5127446;28;20074;-62
2021/11/28 00:54:56;;;;;;;39.85;25.60;;;3.90;99.90;;;;;;5108656;28;20055;-62
2021/11/28 00:57:24;;;;;;;41.17;25.77;;;3.90;99.90;;;;;;5126915;28;20051;-62
2021/11/28 00:59:51;;;;;;;39.90;25.13;;;3.90;99.90;;;;;;5104969;28;20427;-62
2021/11/28 01:02:17;;;;;;;45.80;26.98;;;3.80;99.90;;;;;;5087928;28;20044;-62
2021/11/28 01:04:44;;;;;;;39.15;25.08;;;3.80;99.90;;;;;;5113293;28;20122;-62
2021/11/28 01:07:10;;;;;;;39.95;25.38;;;3.80;99.90;;;;;;5100738;28;20186;-62
2021/11/28 01:09:36;;;;;;;41.85;25.80;;;3.70;99.90;;;;;;5111900;28;20071;-62
2021/11/28 01:12:03;;;;;;;44.10;25.33;;;3.70;99.90;;;;;;5126220;28;20039;-62
2021/11/28 01:14:28;;;;;;;42.60;26.20;;;3.60;99.90;;;;;;5121773;28;20074;-62
2021/11/28 01:16:54;;;;;;;48.15;27.20;;;3.60;99.90;;;;;;5122465;28;20101;-62
2021/11/28 01:19:20;;;;;;;44.50;25.63;;;3.50;99.90;;;;;;5118239;28;20044;-62
2021/11/28 01:21:51;;;;;;;45.47;26.65;;;3.50;99.90;;;;;;5099300;28;20048;-62
2021/11/28 01:24:17;;;;;;;44.83;25.70;;;3.50;99.90;;;;;;5088034;28;20040;-62
2021/11/28 01:26:43;;;;;;;44.38;27.42;;;3.40;99.90;;;;;;5114372;28;20036;-62
2021/11/28 01:29:08;;;;;;;51.83;28.48;;;3.40;99.90;;;;;;5087095;28;20044;-62
2021/11/28 01:31:34;;;;;;;46.92;27.67;;;3.50;99.90;;;;;;5105603;28;20082;-62
2021/11/28 01:34:00;;;;;;;44.60;25.50;;;3.40;99.90;;;;;;5105459;28;20052;-62
2021/11/28 01:36:26;;;;;;;49.05;28.77;;;3.50;99.90;;;;;;5105721;28;20051;-62
2021/11/28 01:38:51;;;;;;;51.70;27.70;;;3.40;99.90;;;;;;5106071;28;20097;-62
2021/11/28 01:41:17;;;;;;;55.17;27.90;;;3.40;99.90;;;;;;5106284;28;20036;-62
2021/11/28 01:43:43;;;;;;;52.00;28.65;;;3.40;99.90;;;;;;5103750;28;20047;-62
2021/11/28 01:46:09;;;;;;;54.10;30.33;;;3.40;99.90;;;;;;5124468;28;20148;-62
2021/11/28 01:48:35;;;;;;;54.70;29.05;;;3.40;99.90;;;;;;5093503;28;20036;-62
2021/11/28 01:51:02;;;;;;;53.83;28.67;;;3.40;99.90;;;;;;5100444;28;20104;-62
2021/11/28 01:53:29;;;;;;;47.05;27.15;;;3.40;99.90;;;;;;5096698;28;20075;-62
2021/11/28 01:55:56;;;;;;;46.05;26.98;;;3.40;99.90;;;;;;5094008;28;20044;-62
2021/11/28 01:58:22;;;;;;;47.70;26.15;;;3.40;99.90;;;;;;5144551;27;20047;-62
2021/11/28 02:00:51;;;;;;;47.75;26.92;;;3.40;99.90;;;;;;5145259;27;20050;-62
2021/11/28 02:03:18;;;;;;;41.30;25.30;;;3.40;99.90;;;;;;5114748;27;20043;-62
2021/11/28 02:05:48;;;;;;;42.15;24.05;;;3.40;99.90;;;;;;5144771;27;20045;-62
2021/11/28 02:08:14;;;;;;;43.33;25.20;;;3.40;99.90;;;;;;5144835;27;20043;-62
2021/11/28 02:10:41;;;;;;;42.97;24.75;;;3.40;99.90;;;;;;5120494;28;20072;-62
2021/11/28 02:13:06;;;;;;;42.00;25.25;;;3.40;99.90;;;;;;5145839;27;20050;-62
2021/11/28 02:15:33;;;;;;;39.85;23.88;;;3.40;99.90;;;;;;5145286;27;20039;-62
2021/11/28 02:17:58;;;;;;;43.47;23.30;;;3.30;99.90;;;;;;5114273;27;20452;-62
2021/11/28 02:20:27;;;;;;;37.78;23.15;;;3.30;99.90;;;;;;5145013;27;20071;-62
2021/11/28 02:22:54;;;;;;;39.70;23.77;;;3.30;99.90;;;;;;5137779;27;20043;-62
2021/11/28 02:25:19;;;;;;;37.55;23.08;;;3.20;99.90;;;;;;5144210;27;20072;-62
2021/11/28 02:27:45;;;;;;;41.65;23.33;;;3.20;99.90;;;;;;5143634;27;20038;-62
2021/11/28 02:30:16;;;;;;;43.72;23.80;;;3.20;99.90;;;;;;5137885;27;20509;-62
2021/11/28 02:32:43;;;;;;;42.75;23.63;;;3.20;99.90;;;;;;5122857;28;20051;-62
2021/11/28 02:35:09;;;;;;;39.85;24.25;;;3.20;99.90;;;;;;5140234;27;20045;-62
2021/11/28 02:37:35;;;;;;;37.05;23.02;;;3.20;99.90;;;;;;5145816;27;20113;-62
2021/11/28 02:40:01;;;;;;;43.13;23.08;;;3.10;99.90;;;;;;5133263;28;20468;-62
2021/11/28 02:42:26;;;;;;;39.20;22.50;;;3.20;99.90;;;;;;5145670;27;20085;-62
2021/11/28 02:44:52;;;;;;;40.03;22.92;;;3.20;99.90;;;;;;5138281;27;20106;-62
2021/11/28 02:47:21;;;;;;;38.78;22.98;;;3.20;99.90;;;;;;5151034;27;20402;-62
2021/11/28 02:49:47;;;;;;;42.67;24.50;;;3.20;99.90;;;;;;5132703;27;20050;-62
2021/11/28 02:52:14;;;;;;;41.97;23.33;;;3.20;99.90;;;;;;5151039;27;20067;-62
2021/11/28 02:54:40;;;;;;;40.80;23.73;;;3.20;99.90;;;;;;5151900;27;20050;-62
2021/11/28 02:57:10;;;;;;;44.65;24.63;;;3.10;99.90;;;;;;5151050;27;20113;-62
2021/11/28 02:59:37;;;;;;;40.38;22.67;;;3.10;99.90;;;;;;5146956;27;20055;-62
2021/11/28 03:02:04;;;;;;;43.45;22.98;;;3.10;99.90;;;;;;5139511;27;20039;-62
2021/11/28 03:04:29;;;;;;;41.42;22.85;;;3.10;99.90;;;;;;5141724;27;20043;-62
2021/11/28 03:06:55;;;;;;;45.88;23.70;;;3.10;99.90;;;;;;5130306;27;20031;-62
2021/11/28 03:09:21;;;;;;;41.03;22.58;;;3.10;99.90;;;;;;5122505;28;20579;-62
2021/11/28 03:11:47;;;;;;;38.50;21.52;;;3.00;99.90;;;;;;5149679;27;20125;-62
2021/11/28 03:14:12;;;;;;;38.88;23.00;;;3.00;99.90;;;;;;5133387;27;20051;-62
2021/11/28 03:16:38;;;;;;;43.95;22.80;;;3.00;99.90;;;;;;5152695;27;20054;-62
2021/11/28 03:19:04;;;;;;;41.35;23.13;;;3.00;99.90;;;;;;5152124;27;20047;-62
2021/11/28 03:21:32;;;;;;;41.15;22.10;;;3.00;99.90;;;;;;5150732;27;20138;-62
2021/11/28 03:24:00;;;;;;;43.25;23.55;;;3.00;99.90;;;;;;5119094;27;20063;-62
2021/11/28 03:26:30;;;;;;;41.58;22.20;;;3.00;99.90;;;;;;5126958;27;20054;-62
2021/11/28 03:28:59;;;;;;;50.15;23.85;;;3.00;99.90;;;;;;5116160;28;20103;-62
2021/11/28 03:31:27;;;;;;;39.65;21.50;;;3.00;99.90;;;;;;5121535;27;20099;-62
2021/11/28 03:33:54;;;;;;;41.22;22.08;;;3.00;99.90;;;;;;5145117;27;20082;-62
2021/11/28 03:36:24;;;;;;;44.55;23.35;;;3.00;99.90;;;;;;5133037;27;20058;-62
2021/11/28 03:38:51;;;;;;;42.63;22.63;;;3.10;99.90;;;;;;5144508;27;20372;-62
2021/11/28 03:41:20;;;;;;;40.92;21.77;;;3.10;99.90;;;;;;5124920;27;20043;-62
2021/11/28 03:43:46;;;;;;;41.13;23.50;;;3.10;99.90;;;;;;5146199;27;20047;-62
2021/11/28 03:46:13;;;;;;;39.50;21.60;;;3.10;99.90;;;;;;5150679;27;20049;-62
2021/11/28 03:48:39;;;;;;;41.15;21.85;;;3.10;99.90;;;;;;5151090;27;20098;-62
2021/11/28 03:51:05;;;;;;;43.08;21.70;;;3.10;99.90;;;;;;5150366;27;20068;-62
2021/11/28 03:53:31;;;;;;;41.83;22.13;;;3.00;99.90;;;;;;5147661;27;20047;-62
2021/11/28 03:56:01;;;;;;;43.22;22.75;;;3.00;99.90;;;;;;5119443;28;20073;-62
2021/11/28 03:58:28;;;;;;;36.85;20.17;;;3.00;99.90;;;;;;5132499;27;20054;-62
2021/11/28 04:00:55;;;;;;;39.50;21.55;;;2.90;99.90;;;;;;5134307;27;20039;-62
2021/11/28 04:03:21;;;;;;;45.42;22.52;;;2.90;99.90;;;;;;5122588;27;20111;-62
2021/11/28 04:05:47;;;;;;;42.80;22.15;;;2.90;99.90;;;;;;5141162;27;20080;-62
2021/11/28 04:08:12;;;;;;;38.78;22.05;;;2.90;99.90;;;;;;5148342;27;20031;-62
2021/11/28 04:10:38;;;;;;;41.03;21.20;;;2.80;99.90;;;;;;5146447;27;20487;-62
2021/11/28 04:13:04;;;;;;;38.90;21.25;;;2.80;99.90;;;;;;5118913;27;20038;-62
2021/11/28 04:15:31;;;;;;;40.60;21.85;;;2.70;99.90;;;;;;5145664;27;20044;-62
2021/11/28 04:17:56;;;;;;;40.67;22.95;;;2.60;99.90;;;;;;5140446;27;20042;-62
2021/11/28 04:20:22;;;;;;;37.88;21.15;;;2.60;99.90;;;;;;5146845;27;20039;-62
2021/11/28 04:22:48;;;;;;;38.90;20.02;;;2.60;99.90;;;;;;5143780;27;20099;-62
2021/11/28 04:25:14;;;;;;;42.78;21.55;;;2.60;99.90;;;;;;5146717;27;20047;-62
2021/11/28 04:27:40;;;;;;;42.63;20.92;;;2.60;99.90;;;;;;5138244;27;20043;-62
2021/11/28 04:30:07;;;;;;;43.67;22.45;;;2.60;99.90;;;;;;5118261;27;20039;-62
2021/11/28 04:32:33;;;;;;;46.75;22.45;;;2.60;99.90;;;;;;5126198;27;20136;-62
2021/11/28 04:34:59;;;;;;;42.30;22.10;;;2.70;99.90;;;;;;5118396;27;20039;-62
2021/11/28 04:37:25;;;;;;;44.63;23.30;;;2.70;99.90;;;;;;5124250;28;20039;-62
2021/11/28 04:39:51;;;;;;;45.20;22.88;;;2.70;99.90;;;;;;5101007;27;20051;-62
2021/11/28 04:42:17;;;;;;;46.55;21.92;;;2.70;99.90;;;;;;5140191;27;20072;-62
2021/11/28 04:44:42;;;;;;;42.33;20.83;;;2.80;99.90;;;;;;5121343;27;20043;-62
2021/11/28 04:47:08;;;;;;;39.17;21.45;;;2.70;99.90;;;;;;5140708;27;20042;-62
2021/11/28 04:49:34;;;;;;;42.35;22.23;;;2.70;99.90;;;;;;5112771;27;20131;-62
2021/11/28 04:51:59;;;;;;;43.95;23.17;;;2.70;99.90;;;;;;5116960;28;20043;-62
2021/11/28 04:54:25;;;;;;;43.72;21.70;;;2.70;99.90;;;;;;5112204;28;20072;-62
2021/11/28 04:56:51;;;;;;;47.22;24.67;;;2.70;99.90;;;;;;5122019;27;20076;-62
2021/11/28 04:59:17;;;;;;;49.15;22.65;;;2.70;99.90;;;;;;5121723;27;20087;-62
2021/11/28 05:01:43;;;;;;;50.40;23.13;;;2.70;99.90;;;;;;5120666;27;20050;-62
2021/11/28 05:04:10;;;;;;;47.85;22.42;;;2.70;99.90;;;;;;5121608;27;20039;-62
2021/11/28 05:06:37;;;;;;;47.10;23.35;;;2.70;99.90;;;;;;5124387;28;20044;-62
2021/11/28 05:09:03;;;;;;;48.33;24.13;;;2.70;99.90;;;;;;5131735;27;20090;-62
2021/11/28 05:11:29;;;;;;;48.63;22.40;;;2.70;99.90;;;;;;5145643;27;20043;-62
2021/11/28 05:13:54;;;;;;;63.60;23.08;;;2.60;99.90;;;;;;5145972;27;20095;-62
2021/11/28 05:16:20;;;;;;;75.50;24.13;;;2.60;99.90;;;;;;5145832;27;20039;-62
2021/11/28 05:18:46;;;;;;;104.82;22.25;;;2.50;99.90;;;;;;5123268;28;20086;-62
2021/11/28 05:21:12;;;;;;;179.35;26.73;;;2.50;99.90;;;;;;5143364;27;20039;-62
2021/11/28 05:23:38;;;;;;;223.10;28.13;;;2.40;99.90;;;;;;5137744;27;20039;-62
2021/11/28 05:26:04;;;;;;;191.60;26.30;;;2.40;99.90;;;;;;5142848;27;20031;-62
2021/11/28 05:28:30;;;;;;;213.65;26.88;;;2.20;99.90;;;;;;5109547;27;20043;-62
2021/11/28 05:30:55;;;;;;;239.50;27.63;;;2.20;99.90;;;;;;5145378;27;20050;-62
2021/11/28 05:33:21;;;;;;;269.48;28.63;;;2.10;99.90;;;;;;5137838;27;20039;-62
2021/11/28 05:35:47;;;;;;;244.57;26.75;;;2.10;99.90;;;;;;5148034;27;20047;-62
2021/11/28 05:38:13;;;;;;;210.60;28.05;;;2.00;99.90;;;;;;5146490;27;20047;-62
2021/11/28 05:40:39;;;;;;;142.30;25.30;;;1.90;99.90;;;;;;5146037;27;20058;-62
2021/11/28 05:43:05;;;;;;;76.82;25.25;;;1.90;99.90;;;;;;5136905;27;20043;-62
2021/11/28 05:45:30;;;;;;;86.85;25.80;;;1.90;99.90;;;;;;5109825;28;20044;-62
2021/11/28 05:47:56;;;;;;;116.65;27.63;;;1.90;99.90;;;;;;5119970;28;20063;-62
2021/11/28 05:50:25;;;;;;;129.30;26.63;;;2.00;99.90;;;;;;5115507;27;20055;-62
2021/11/28 05:52:52;;;;;;;149.30;27.92;;;2.00;99.90;;;;;;5103530;28;20047;-62
2021/11/28 05:55:18;;;;;;;131.10;27.88;;;2.00;99.90;;;;;;5139241;27;20048;-62
2021/11/28 05:57:44;;;;;;;133.40;25.90;;;1.90;99.90;;;;;;5121282;27;20044;-62
2021/11/28 06:00:13;;;;;;;189.95;28.58;;;1.90;99.90;;;;;;5124545;27;20140;-62
2021/11/28 06:02:39;;;;;;;248.50;30.13;;;1.90;99.90;;;;;;5131310;27;20053;-62
2021/11/28 06:05:07;;;;;;;217.82;31.02;;;1.90;99.90;;;;;;5131875;27;20043;-62
2021/11/28 06:07:33;;;;;;;240.70;31.77;;;1.90;99.90;;;;;;5141608;27;20047;-62
2021/11/28 06:09:59;;;;;;;215.50;31.33;;;1.80;99.90;;;;;;5136066;27;20073;-62
2021/11/28 06:12:24;;;;;;;178.27;27.10;;;1.80;99.90;;;;;;5139251;27;20028;-62
2021/11/28 06:14:50;;;;;;;122.50;25.58;;;1.80;99.90;;;;;;5126167;27;20051;-62
2021/11/28 06:17:16;;;;;;;134.13;26.05;;;1.80;99.90;;;;;;5138551;27;20079;-62
2021/11/28 06:19:42;;;;;;;131.35;24.92;;;1.80;99.90;;;;;;5146079;27;20080;-62
2021/11/28 06:22:09;;;;;;;151.77;26.02;;;1.80;99.90;;;;;;5146394;27;20520;-62
2021/11/28 06:24:38;;;;;;;174.80;27.90;;;1.80;99.90;;;;;;5117561;27;20055;-62
2021/11/28 06:27:07;;;;;;;172.27;28.27;;;1.80;99.90;;;;;;5145404;27;20031;-62
2021/11/28 06:29:35;;;;;;;205.45;28.38;;;1.80;99.90;;;;;;5121220;27;20059;-62
2021/11/28 06:32:02;;;;;;;245.68;31.25;;;1.80;99.90;;;;;;5138955;27;20050;-62
2021/11/28 06:34:28;;;;;;;236.95;29.52;;;1.70;99.90;;;;;;5115990;28;20172;-62
2021/11/28 06:36:54;;;;;;;226.55;29.23;;;1.80;99.90;;;;;;5138117;27;20055;-62
2021/11/28 06:39:21;;;;;;;215.60;28.13;;;1.80;99.90;;;;;;5109390;28;20039;-62
2021/11/28 06:41:47;;;;;;;309.27;33.30;;;1.80;99.90;;;;;;5141644;28;20043;-62
2021/11/28 06:44:12;;;;;;;197.23;28.13;;;1.80;99.90;;;;;;5117524;28;20054;-62
2021/11/28 06:46:38;;;;;;;210.35;30.30;;;1.70;99.90;;;;;;5135698;28;20058;-62
2021/11/28 06:49:04;;;;;;;265.70;30.65;;;1.70;99.90;;;;;;5134517;28;20046;-62
2021/11/28 06:51:30;;;;;;;197.43;28.85;;;1.80;99.90;;;;;;5144981;28;20039;-62
2021/11/28 06:53:56;;;;;;;250.90;31.48;;;1.70;99.90;;;;;;5143041;28;20054;-62
2021/11/28 06:56:21;;;;;;;261.98;31.15;;;1.70;99.90;;;;;;5139242;28;20046;-62
2021/11/28 06:58:47;;;;;;;223.75;31.00;;;1.70;99.90;;;;;;5119068;28;20518;-62
2021/11/28 07:01:13;;;;;;;194.50;28.42;;;1.70;99.90;;;;;;5109395;28;20103;-62
2021/11/28 07:03:39;;;;;;;210.60;29.08;;;1.70;99.90;;;;;;5145317;28;20044;-62
2021/11/28 07:06:05;;;;;;;189.25;30.15;;;1.70;99.90;;;;;;5114986;28;20039;-62
2021/11/28 07:08:31;;;;;;;215.80;29.58;;;1.70;99.90;;;;;;5131721;28;20197;-62
2021/11/28 07:10:58;;;;;;;207.43;30.85;;;1.70;99.90;;;;;;5114298;28;20076;-62
2021/11/28 07:13:25;;;;;;;245.10;30.67;;;1.70;99.90;;;;;;5134866;28;20055;-62
2021/11/28 07:15:52;;;;;;;175.73;26.92;;;1.70;99.90;;;;;;5138416;27;20051;-62
2021/11/28 07:18:18;;;;;;;201.70;28.45;;;1.70;99.90;;;;;;5120259;28;20096;-62
2021/11/28 07:20:44;;;;;;;218.43;27.85;;;1.70;99.90;;;;;;5121994;28;20058;-62
2021/11/28 07:23:10;;;;;;;236.57;29.13;;;1.70;99.90;;;;;;5121413;28;20465;-62
2021/11/28 07:25:36;;;;;;;181.73;26.27;;;1.60;99.90;;;;;;5126261;28;20421;-62
2021/11/28 07:28:02;;;;;;;239.00;30.48;;;1.70;99.90;;;;;;5146392;27;20098;-62
2021/11/28 07:30:29;;;;;;;188.90;27.90;;;1.60;99.90;;;;;;5129955;27;20051;-62
2021/11/28 07:32:54;;;;;;;238.05;31.73;;;1.60;99.90;;;;;;5119780;28;20052;-62
2021/11/28 07:35:20;;;;;;;157.57;24.98;;;1.60;99.90;;;;;;5148134;27;20274;-62
2021/11/28 07:37:47;;;;;;;127.47;23.83;;;1.60;99.90;;;;;;5112893;27;20054;-62
2021/11/28 07:40:13;;;;;;;158.40;26.15;;;1.60;99.90;;;;;;5116920;27;20039;-62
2021/11/28 07:42:39;;;;;;;145.73;23.35;;;1.60;99.90;;;;;;5143164;27;20051;-62
2021/11/28 07:45:07;;;;;;;225.05;26.63;;;1.60;99.90;;;;;;5113266;28;20051;-62
2021/11/28 07:47:32;;;;;;;180.90;26.65;;;1.50;99.90;;;;;;5128107;27;20043;-62
2021/11/28 07:49:58;;;;;;;123.88;22.45;;;1.50;99.90;;;;;;5139960;27;20114;-62
2021/11/28 07:52:24;;;;;;;141.45;23.42;;;1.50;99.90;;;;;;5125221;27;20043;-62
2021/11/28 07:54:49;;;;;;;119.38;22.30;;;1.50;99.90;;;;;;5148092;27;20035;-62
2021/11/28 07:57:15;;;;;;;114.07;21.95;;;1.50;99.90;;;;;;5142022;27;20063;-62
2021/11/28 07:59:41;;;;;;;97.00;20.67;;;1.50;99.90;;;;;;5129570;27;20055;-62
2021/11/28 08:02:07;;;;;;;80.55;20.35;;;1.50;99.90;;;;;;5140081;27;20093;-62
2021/11/28 08:04:33;;;;;;;118.88;22.52;;;1.50;99.90;;;;;;5129379;27;20071;-62
2021/11/28 08:07:00;;;;;;;110.10;20.75;;;1.50;99.90;;;;;;5147995;27;20043;-62
2021/11/28 08:09:26;;;;;;;117.43;22.15;;;1.50;99.90;;;;;;5129489;27;20063;-62
2021/11/28 08:11:52;;;;;;;96.40;21.45;;;1.50;99.90;;;;;;5145036;27;20069;-62
2021/11/28 08:14:18;;;;;;;103.18;20.42;;;1.60;99.90;;;;;;5142120;27;20041;-62
2021/11/28 08:16:44;;;;;;;75.22;20.35;;;1.60;99.90;;;;;;5146385;27;20039;-62
2021/11/28 08:19:10;;;;;;;76.00;20.38;;;1.60;99.90;;;;;;5135459;27;20100;-62
2021/11/28 08:21:36;;;;;;;73.85;21.45;;;1.60;99.90;;;;;;5125200;28;20083;-64
2021/11/28 08:24:04;;;;;;;53.38;18.85;;;1.60;99.90;;;;;;5144538;27;20077;-62
2021/11/28 08:26:32;;;;;;;83.38;19.50;;;1.60;99.90;;;;;;5126143;27;20355;-62
2021/11/28 08:28:58;;;;;;;74.18;20.05;;;1.60;99.90;;;;;;5115866;27;20043;-61
2021/11/28 08:31:24;;;;;;;59.00;19.38;;;1.60;99.90;;;;;;5126428;27;20051;-62
2021/11/28 08:33:51;;;;;;;49.92;18.15;;;1.70;99.90;;;;;;5142360;27;20097;-61
2021/11/28 08:36:19;;;;;;;40.75;18.55;;;1.70;99.90;;;;;;5143863;27;20043;-61
2021/11/28 08:38:47;;;;;;;49.72;19.63;;;1.80;99.90;;;;;;5123582;27;20051;-61
2021/11/28 08:41:14;;;;;;;35.17;18.05;;;1.80;99.90;;;;;;5140842;27;20399;-61
2021/11/28 08:43:41;;;;;;;34.22;16.00;;;1.90;99.90;;;;;;5123818;27;20043;-61
2021/11/28 08:46:07;;;;;;;37.03;17.90;;;1.90;99.90;;;;;;5125612;27;20039;-61
2021/11/28 08:48:34;;;;;;;40.10;18.88;;;2.00;99.90;;;;;;5124499;27;20058;-61
2021/11/28 08:51:00;;;;;;;30.17;15.80;;;2.00;99.90;;;;;;5145189;27;20054;-61
2021/11/28 08:53:26;;;;;;;29.25;15.77;;;2.00;99.90;;;;;;5137293;27;20042;-61
2021/11/28 08:55:52;;;;;;;33.97;17.30;;;2.10;99.90;;;;;;5147065;27;20047;-61
2021/11/28 08:58:18;;;;;;;32.00;16.17;;;2.10;99.90;;;;;;5142661;27;20101;-62
2021/11/28 09:00:44;;;;;;;27.27;15.18;;;2.20;99.90;;;;;;5127785;27;20081;-62
2021/11/28 09:03:10;;;;;;;29.35;15.25;;;2.20;99.90;;;;;;5125915;27;20043;-62
2021/11/28 09:05:36;;;;;;;22.88;13.48;;;2.20;99.90;;;;;;5125996;27;20042;-61
2021/11/28 09:08:03;;;;;;;27.02;14.95;;;2.30;99.90;;;;;;5120589;27;20068;-62
2021/11/28 09:10:30;;;;;;;24.23;15.45;;;2.30;99.90;;;;;;5144165;27;20047;-61
2021/11/28 09:12:57;;;;;;;25.70;14.25;;;2.30;99.90;;;;;;5139213;27;20056;-61
2021/11/28 09:15:25;;;;;;;27.38;14.73;;;2.30;99.90;;;;;;5145976;27;20054;-61
2021/11/28 09:18:02;;;;;;;26.25;14.45;;;2.40;99.90;;;;;;5120385;27;20052;-61
2021/11/28 09:20:28;;;;;;;22.55;12.85;;;2.50;99.90;;;;;;5123814;27;20054;-62
2021/11/28 09:25:27;;;;;;;23.27;12.65;;;2.80;99.90;;;;;;5125609;27;20099;-62
2021/11/28 09:27:55;;;;;;;20.95;13.10;;;2.90;99.90;;;;;;5119423;27;20039;-62
2021/11/28 09:30:23;;;;;;;22.00;12.38;;;3.00;99.90;;;;;;5138831;27;20055;-62
2021/11/28 09:32:51;;;;;;;20.50;12.45;;;3.10;99.90;;;;;;5120414;27;20043;-62
2021/11/28 09:35:17;;;;;;;18.88;11.75;;;3.20;99.90;;;;;;5121531;28;20048;-62
2021/11/28 09:37:42;;;;;;;18.58;11.68;;;3.20;99.90;;;;;;5119494;27;20047;-62
2021/11/28 09:40:08;;;;;;;19.85;11.98;;;3.20;99.90;;;;;;5123306;28;20069;-62
2021/11/28 09:42:42;;;;;;;17.52;10.27;;;3.20;99.90;;;;;;5139656;27;20051;-62
2021/11/28 09:45:09;;;;;;;20.80;11.25;;;3.40;99.90;;;;;;5141455;27;20063;-62
2021/11/28 09:47:36;;;;;;;16.52;10.98;;;3.40;99.90;;;;;;5124348;27;20069;-62
2021/11/28 09:50:05;;;;;;;19.67;11.93;;;3.40;99.90;;;;;;5115210;27;20521;-62
2021/11/28 09:52:32;;;;;;;19.13;11.60;;;3.60;99.90;;;;;;5113147;28;20056;-64
2021/11/28 09:55:00;;;;;;;14.30;9.65;;;3.70;99.90;;;;;;5119524;27;20444;-63
2021/11/28 09:57:27;;;;;;;16.15;10.70;;;3.80;99.90;;;;;;5125111;27;20434;-63
2021/11/28 09:59:55;;;;;;;15.50;10.23;;;4.00;99.90;;;;;;5121836;27;20051;-62
2021/11/28 10:02:23;;;;;;;12.98;8.45;;;4.10;99.90;;;;;;5069255;27;20043;-63
2021/11/28 10:04:50;;;;;;;13.65;8.05;;;4.20;99.90;;;;;;5090652;27;20064;-63
2021/11/28 10:07:17;;;;;;;11.77;7.80;;;4.40;99.90;;;;;;5115765;27;20043;-63
2021/11/28 10:09:43;;;;;;;11.88;8.48;;;4.50;99.90;;;;;;5129356;27;20065;-63
2021/11/28 10:12:23;;;;;;;13.90;8.48;;;4.60;99.90;;;;;;5116191;27;20551;-63
2021/11/28 10:14:56;;;;;;;14.10;8.93;;;4.70;99.90;;;;;;5101219;28;20111;-63
2021/11/28 10:17:25;;;;;;;13.02;7.68;;;4.70;99.90;;;;;;5139093;27;20476;-65
2021/11/28 10:19:51;;;;;;;11.40;7.80;;;4.80;99.90;;;;;;5110930;27;20043;-63
2021/11/28 10:22:17;;;;;;;10.43;7.65;;;4.80;99.90;;;;;;5120623;27;20088;-64
2021/11/28 10:24:52;;;;;;;13.90;7.80;;;4.80;99.90;;;;;;5105091;28;20067;-64
2021/11/28 10:27:17;;;;;;;10.43;6.93;;;4.90;99.90;;;;;;5134949;27;20102;-64
2021/11/28 10:29:43;;;;;;;9.27;6.80;;;4.90;99.90;;;;;;5102255;27;20070;-64
2021/11/28 10:32:13;;;;;;;11.30;7.53;;;4.90;99.90;;;;;;5129131;27;20054;-64
2021/11/28 10:34:44;;;;;;;7.95;5.43;;;4.90;99.90;;;;;;5105201;28;20047;-63
2021/11/28 10:37:21;;;;;;;8.35;6.10;;;4.80;99.90;;;;;;5113571;27;20101;-64
2021/11/28 10:39:49;;;;;;;9.77;5.55;;;4.80;99.90;;;;;;5101705;28;20049;-64
2021/11/28 10:42:22;;;;;;;8.70;6.07;;;4.80;99.90;;;;;;5110822;28;20525;-64
2021/11/28 10:45:11;;;;;;;7.88;5.22;;;4.60;99.90;;;;;;5103375;28;20072;-64
2021/11/28 10:47:55;;;;;;;7.57;4.90;;;4.70;99.90;;;;;;5099560;28;20051;-63
2021/11/28 10:50:35;;;;;;;7.53;5.15;;;4.60;99.90;;;;;;5103862;28;20264;-64
2021/11/28 10:53:05;;;;;;;7.20;4.82;;;4.60;99.90;;;;;;5139547;28;20070;-64
2021/11/28 10:55:39;;;;;;;7.20;4.07;;;4.60;99.90;;;;;;5094401;28;20108;-64
2021/11/28 10:58:19;;;;;;;5.72;3.72;;;4.60;99.90;;;;;;5114737;28;20071;-65
2021/11/28 11:00:45;;;;;;;4.70;3.25;;;4.60;99.90;;;;;;5074885;28;20047;-65
2021/11/28 11:03:22;;;;;;;4.15;2.22;;;4.60;99.90;;;;;;5121662;27;20065;-65
2021/11/28 11:05:51;;;;;;;3.40;2.30;;;4.60;99.90;;;;;;5111635;27;20055;-63
2021/11/28 11:08:18;;;;;;;4.35;2.33;;;4.60;99.90;;;;;;5112108;27;20058;-64
2021/11/28 11:10:50;;;;;;;3.45;2.10;;;4.70;99.90;;;;;;5123550;27;20047;-63
2021/11/28 11:13:19;;;;;;;4.95;2.55;;;4.60;99.90;;;;;;5114961;27;20139;-68
2021/11/28 11:15:50;;;;;;;4.95;2.35;;;4.60;99.90;;;;;;5121592;28;20043;-67
2021/11/28 11:18:21;;;;;;;2.78;2.10;;;4.60;99.90;;;;;;5125729;27;20049;-64
2021/11/28 11:20:49;;;;;;;2.92;1.80;;;4.60;99.90;;;;;;5124767;27;20041;-64
2021/11/28 11:23:42;;;;;;;2.17;1.63;;;4.70;99.90;;;;;;5126711;27;20043;-66
2021/11/28 11:26:27;;;;;;;2.58;1.40;;;4.60;99.90;;;;;;5096287;28;20067;-65
2021/11/28 11:29:11;;;;;;;2.72;1.58;;;4.60;99.90;;;;;;5103362;28;20050;-67
2021/11/28 11:31:40;;;;;;;2.65;1.92;;;4.70;99.90;;;;;;5106059;27;20039;-65
2021/11/28 11:34:23;;;;;;;3.75;1.50;;;4.70;99.90;;;;;;5116647;27;20121;-65
2021/11/28 11:37:04;;;;;;;4.32;1.52;;;4.70;99.90;;;;;;5110777;27;20354;-62
2021/11/28 11:39:31;;;;;;;;;;;4.80;99.90;;;;;;5097261;27;20111;-64
2021/11/28 11:41:57;;;;;;;2.38;0.98;;;4.80;99.90;;;;;;5141078;27;19940;-65
2021/11/28 11:44:25;;;;;;;0.82;0.80;;;4.80;99.90;;;;;;5112309;27;20043;-65
2021/11/28 11:46:52;;;;;;;3.65;1.15;;;4.90;99.90;;;;;;5124572;27;20047;-64
2021/11/28 11:49:18;;;;;;;3.22;1.00;;;4.90;99.90;;;;;;5086993;27;20058;-65
2021/11/28 11:51:47;;;;;;;2.47;0.90;;;4.80;99.90;;;;;;5138535;27;20042;-65
2021/11/28 11:54:28;;;;;;;1.35;0.63;;;4.90;99.90;;;;;;5109765;27;20477;-64
2021/11/28 11:57:03;;;;;;;0.80;0.60;;;4.80;99.90;;;;;;5134018;27;20371;-65
2021/11/28 11:59:41;;;;;;;1.48;0.90;;;4.90;99.90;;;;;;5126861;27;20052;-64
2021/11/28 12:02:07;;;;;;;1.73;0.73;;;4.80;99.90;;;;;;5127047;27;20055;-65
2021/11/28 12:04:51;;;;;;;2.00;0.90;;;4.90;99.90;;;;;;5090107;27;20097;-64
2021/11/28 12:07:47;;;;;;;1.95;0.60;;;4.90;99.90;;;;;;5114711;27;20046;-65
2021/11/28 12:10:38;;;;;;;0.65;0.60;;;4.90;99.90;;;;;;5108632;27;20427;-65
2021/11/28 12:13:06;;;;;;;;;;;4.90;99.90;;;;;;5119832;27;20051;-65
2021/11/28 12:15:34;;;;;;;1.75;0.60;;;5.00;99.90;;;;;;5108496;27;19986;-65
2021/11/28 12:18:01;;;;;;;0.52;0.52;;;5.00;99.90;;;;;;5118081;27;20044;-65
2021/11/28 12:20:54;;;;;;;2.30;0.60;;;5.50;99.90;;;;;;5130746;27;20082;-64
2021/11/28 12:23:46;;;;;;;1.75;0.52;;;5.70;99.90;;;;;;5136952;27;20051;-64
2021/11/28 12:26:27;;;;;;;1.85;0.55;;;5.70;99.90;;;;;;5102206;27;20134;-64
2021/11/28 12:28:57;;;;;;;0.95;0.68;;;5.60;99.90;;;;;;5095752;27;20043;-64
2021/11/28 12:31:33;;;;;;;1.73;0.60;;;5.60;99.90;;;;;;5118226;28;20044;-64
2021/11/28 12:34:10;;;;;;;1.85;0.70;;;5.60;99.90;;;;;;5097294;28;20090;-64
2021/11/28 12:36:48;;;;;;;0.73;0.50;;;5.60;99.90;;;;;;5096270;27;20054;-64
2021/11/28 12:39:16;;;;;;;1.60;1.08;;;5.50;99.90;;;;;;5108760;27;20040;-64
2021/11/28 12:41:45;;;;;;;1.05;0.60;;;5.50;99.90;;;;;;5125454;27;20043;-64
2021/11/28 12:44:12;;;;;;;1.60;0.70;;;5.50;99.90;;;;;;5105866;27;20101;-64
2021/11/28 12:46:56;;;;;;;1.35;1.05;;;5.50;99.90;;;;;;5118200;27;20039;-64
2021/11/28 12:49:39;;;;;;;1.98;0.70;;;5.30;99.90;;;;;;5094014;27;20089;-64
2021/11/28 12:52:23;;;;;;;0.60;0.40;;;5.50;99.90;;;;;;5094361;27;20047;-64